Time;durP1;ratioP1;P1;durP2;ratioP2;P2;SDS_P1;SDS_P2;PMS_P1;PMS_P2;Temp;Humidity;BMP_temperature;BMP_pressure;BME280_temperature;BME280_humidity;BME280_pressure;Samples;Min_cycle;Max_cycle;Signal;HPM_P1;HPM_P2
2023/02/11 00:00:25;;;;;;;5.60;5.05;;;;;;;-0.07;55.31;101977.19;4413983;32;33170;-89
2023/02/11 00:02:55;;;;;;;3.60;2.90;;;;;;;-0.09;55.39;101978.00;4402095;32;32745;-90
2023/02/11 00:05:24;;;;;;;0.60;0.60;;;;;;;-0.37;55.96;101979.63;4402162;32;32937;-90
2023/02/11 00:07:51;;;;;;;1.77;1.73;;;;;;;-0.16;55.84;101974.28;4412964;32;32682;-90
2023/02/11 00:10:21;;;;;;;2.67;1.45;;;;;;;-0.17;55.57;101969.06;4388593;32;33794;-91
2023/02/11 00:12:49;;;;;;;0.47;0.47;;;;;;;-0.13;55.29;101970.94;4404093;32;32488;-91
2023/02/11 00:15:43;;;;;;;2.78;2.60;;;;;;;-0.30;55.48;101972.91;4391907;32;32133;-91
2023/02/11 00:18:11;;;;;;;2.58;2.25;;;;;;;-0.27;55.38;101963.53;4381723;32;33624;-91
2023/02/11 00:21:26;;;;;;;3.17;2.97;;;;;;;-0.42;55.83;101965.59;4406738;32;34502;-92
2023/02/11 00:24:06;;;;;;;2.42;2.33;;;;;;;-0.41;55.83;101964.75;4368156;32;33892;-91
2023/02/11 00:26:56;;;;;;;1.75;1.70;;;;;;;-0.32;55.70;101949.50;4404081;32;33142;-90
2023/02/11 00:29:37;;;;;;;3.67;3.45;;;;;;;-0.17;55.25;101953.47;4417955;32;32723;-88
2023/02/11 00:32:05;;;;;;;2.10;2.00;;;;;;;-0.26;55.29;101952.31;4392846;32;34227;-89
2023/02/11 00:34:34;;;;;;;3.78;3.47;;;;;;;-0.56;56.22;101956.44;4388262;32;33516;-92
2023/02/11 00:37:25;;;;;;;1.87;1.77;;;;;;;-0.57;56.37;101960.75;4407913;32;32437;-92
2023/02/11 00:40:05;;;;;;;5.43;4.57;;;;;;;-0.59;56.37;101956.31;4381453;32;34116;-92
2023/02/11 00:42:57;;;;;;;3.08;2.22;;;;;;;-0.52;55.90;101955.72;4396625;32;32773;-92
2023/02/11 00:45:36;;;;;;;1.92;1.85;;;;;;;-0.52;55.71;101956.59;4393149;32;33003;-92
2023/02/11 00:48:27;;;;;;;1.17;1.17;;;;;;;-0.75;56.44;101954.00;4392444;32;32414;-93
2023/02/11 00:51:07;;;;;;;2.70;2.50;;;;;;;-0.54;56.17;101944.38;4380766;32;32606;-93
2023/02/11 00:53:58;;;;;;;1.12;1.10;;;;;;;-0.45;55.39;101947.31;4375109;32;32787;-92
2023/02/11 00:56:40;;;;;;;0.60;0.60;;;;;;;-0.54;55.66;101952.16;4431473;32;32883;-91
2023/02/11 00:59:31;;;;;;;3.50;3.30;;;;;;;-0.58;55.64;101945.09;4369697;32;32537;-92
2023/02/11 01:02:11;;;;;;;11.12;6.90;;;;;;;-0.54;55.65;101949.56;4411140;32;33559;-92
2023/02/11 01:05:02;;;;;;;8.25;5.65;;;;;;;-0.64;55.60;101945.78;4394315;32;32729;-91
2023/02/11 01:07:49;;;;;;;5.12;4.62;;;;;;;-0.83;56.30;101938.16;4391814;32;33734;-90
2023/02/11 01:10:54;;;;;;;2.45;2.22;;;;;;;-0.72;55.91;101930.75;4415197;32;32333;-91
2023/02/11 01:13:46;;;;;;;9.18;4.47;;;;;;;-0.61;55.51;101922.53;4422364;32;34884;-91
2023/02/11 01:16:27;;;;;;;12.15;5.18;;;;;;;-0.74;55.83;101922.03;4383880;32;34647;-91
2023/02/11 01:19:15;;;;;;;7.32;3.72;;;;;;;-0.66;55.69;101912.84;4377911;32;32862;-91
2023/02/11 01:21:45;;;;;;;6.22;2.70;;;;;;;-0.66;55.40;101910.25;4384941;32;34074;-91
2023/02/11 01:24:27;;;;;;;2.10;2.00;;;;;;;-0.71;55.66;101907.47;4421706;32;33385;-92
2023/02/11 01:27:31;;;;;;;3.60;3.33;;;;;;;-0.82;55.66;101904.47;4409224;32;32576;-91
2023/02/11 01:30:12;;;;;;;4.03;3.83;;;;;;;-0.88;56.06;101914.63;4396209;32;32992;-91
2023/02/11 01:33:03;;;;;;;3.55;3.25;;;;;;;-0.90;56.23;101903.34;4393399;32;32713;-93
2023/02/11 01:35:43;;;;;;;1.00;1.00;;;;;;;-0.85;56.18;101899.19;4403610;32;32835;-92
2023/02/11 01:38:39;;;;;;;4.10;3.17;;;;;;;-0.90;56.42;101895.56;4396350;32;34551;-92
2023/02/11 01:41:30;;;;;;;1.62;1.50;;;;;;;-0.80;56.36;101889.00;4379980;32;33267;-91
2023/02/11 01:44:26;;;;;;;3.47;2.72;;;;;;;-1.21;57.32;101892.66;4376379;32;32547;-90
2023/02/11 01:47:06;;;;;;;2.58;2.42;;;;;;;-0.98;57.07;101896.09;4391920;32;33198;-90
2023/02/11 01:50:00;;;;;;;2.08;1.95;;;;;;;-0.78;56.37;101895.97;4406317;32;33867;-91
2023/02/11 01:52:40;;;;;;;1.05;1.05;;;;;;;-0.95;56.29;101891.91;4413251;32;33065;-90
2023/02/11 02:00:03;;;;;;;9.50;4.80;;;;;;;-0.82;56.06;101891.50;4393939;32;35543;-89
2023/02/11 02:02:57;;;;;;;2.78;2.60;;;;;;;-1.19;57.01;101893.56;4368270;32;32888;-90
2023/02/11 02:06:02;;;;;;;5.75;5.22;;;;;;;-1.04;56.74;101886.41;4417423;32;33803;-91
2023/02/11 02:09:02;;;;;;;0.88;0.88;;;;;;;-0.94;56.22;101890.19;4364954;32;33903;-87
2023/02/11 02:11:30;;;;;;;2.45;2.28;;;;;;;-0.86;55.94;101888.75;4362656;32;32837;-88
2023/02/11 02:13:58;;;;;;;2.50;2.30;;;;;;;-1.22;56.76;101890.87;4375620;32;33736;-87
2023/02/11 02:16:35;;;;;;;6.82;5.78;;;;;;;-1.35;57.54;101892.13;4363004;32;32979;-87
2023/02/11 02:19:09;;;;;;;1.30;1.25;;;;;;;-1.19;57.33;101890.97;4369137;32;32006;-87
2023/02/11 02:22:09;;;;;;;2.87;2.67;;;;;;;-1.04;56.78;101888.97;4375466;32;34293;-91
2023/02/11 02:25:05;;;;;;;3.47;2.53;;;;;;;-0.98;56.59;101885.72;4385813;32;33339;-91
2023/02/11 02:28:04;;;;;;;1.12;1.12;;;;;;;-1.00;56.21;101888.25;4418412;32;34266;-91
2023/02/11 02:31:06;;;;;;;1.48;1.48;;;;;;;-1.13;56.56;101886.06;4373464;32;32504;-91
2023/02/11 02:34:08;;;;;;;5.00;2.50;;;;;;;-1.25;56.72;101880.41;4407150;32;32006;-93
2023/02/11 02:36:56;;;;;;;1.33;1.33;;;;;;;-1.24;56.44;101882.16;4406914;32;33803;-93
2023/02/11 02:39:49;;;;;;;2.08;1.98;;;;;;;-1.24;56.51;101882.16;4393443;32;32997;-92
2023/02/11 02:42:29;;;;;;;2.60;2.45;;;;;;;-1.21;56.49;101872.78;4389806;32;32024;-91
2023/02/11 02:45:20;;;;;;;7.55;4.55;;;;;;;-1.05;55.98;101880.28;4359582;32;33010;-92
2023/02/11 02:47:59;;;;;;;3.20;3.05;;;;;;;-1.11;56.01;101868.81;4420973;32;32995;-92
2023/02/11 02:51:08;;;;;;;3.28;2.35;;;;;;;-1.24;56.24;101874.37;4385260;32;33097;-91
2023/02/11 02:53:59;;;;;;;1.30;1.27;;;;;;;-1.18;56.50;101869.44;4392139;32;32450;-92
2023/02/11 02:56:56;;;;;;;2.25;2.08;;;;;;;-1.12;56.05;101867.06;4390716;32;32923;-92
2023/02/11 03:00:14;;;;;;;1.70;1.58;;;;;;;-1.17;56.10;101869.50;4409060;32;33679;-93
2023/02/11 03:03:16;;;;;;;2.05;1.95;;;;;;;-1.16;56.03;101860.00;4394260;32;33061;-91
2023/02/11 03:06:16;;;;;;;1.00;1.00;;;;;;;-1.13;55.98;101855.81;4416615;32;32164;-91
2023/02/11 03:09:04;;;;;;;5.18;4.80;;;;;;;-1.19;56.21;101867.66;4426799;32;32609;-91
2023/02/11 03:11:55;;;;;;;1.15;1.15;;;;;;;-1.23;56.33;101868.41;4387874;32;32342;-91
2023/02/11 03:14:25;;;;;;;2.70;2.40;;;;;;;-1.45;56.79;101862.38;4380198;32;32538;-91
2023/02/11 03:17:16;;;;;;;2.00;1.77;;;;;;;-1.37;56.49;101858.38;4382262;32;31791;-90
2023/02/11 03:19:45;;;;;;;2.65;2.50;;;;;;;-1.16;55.95;101850.50;4392723;32;33737;-91
2023/02/11 03:22:41;;;;;;;2.45;2.25;;;;;;;-1.16;56.06;101847.91;4419865;32;33675;-89
2023/02/11 03:25:09;;;;;;;2.40;2.30;;;;;;;-1.16;56.33;101847.03;4401946;32;32612;-88
2023/02/11 03:27:53;;;;;;;2.00;1.90;;;;;;;-1.21;56.17;101844.28;4396911;32;32131;-89
2023/02/11 03:30:29;;;;;;;1.45;1.35;;;;;;;-1.29;56.07;101846.56;4403730;32;33693;-89
2023/02/11 03:33:04;;;;;;;0.68;0.68;;;;;;;-1.15;55.74;101846.22;4402226;32;34798;-89
2023/02/11 03:35:57;;;;;;;0.20;0.20;;;;;;;-1.17;55.76;101847.88;4401564;32;33014;-89
2023/02/11 03:38:29;;;;;;;1.92;1.85;;;;;;;-1.35;56.13;101842.88;4422331;32;33393;-91
2023/02/11 03:41:04;;;;;;;0.98;0.98;;;;;;;-1.30;56.01;101831.84;4409590;32;32236;-91
2023/02/11 03:43:57;;;;;;;1.17;1.17;;;;;;;-1.30;56.35;101831.84;4373289;32;32909;-90
2023/02/11 03:46:38;;;;;;;2.37;1.90;;;;;;;-1.38;56.21;101822.03;4374856;32;32834;-90
2023/02/11 03:49:44;;;;;;;0.82;0.82;;;;;;;-1.36;56.67;101821.28;4413409;32;31547;-91
2023/02/11 03:52:25;;;;;;;1.90;1.80;;;;;;;-1.36;56.89;101817.81;4382897;32;32764;-88
2023/02/11 03:54:55;;;;;;;2.70;1.55;;;;;;;-1.41;56.79;101807.25;4372513;32;33602;-89
2023/02/11 03:57:23;;;;;;;0.85;0.85;;;;;;;-1.53;57.00;101803.31;4390298;32;32586;-88
2023/02/11 03:59:56;;;;;;;1.60;1.23;;;;;;;-1.46;57.21;101807.94;4402179;32;33427;-88
2023/02/11 04:02:29;;;;;;;2.95;2.83;;;;;;;-1.45;56.92;101795.03;4383494;32;33288;-88
2023/02/11 04:04:57;;;;;;;2.85;1.80;;;;;;;-1.54;57.17;101789.50;4399634;32;33021;-89
2023/02/11 04:07:25;;;;;;;4.53;2.50;;;;;;;-1.43;56.72;101784.69;4389771;32;33925;-88
2023/02/11 04:09:52;;;;;;;1.75;1.73;;;;;;;-1.40;56.51;101792.59;4401459;32;33449;-89
2023/02/11 04:12:21;;;;;;;0.70;0.70;;;;;;;-1.56;56.49;101785.97;4396315;32;32665;-89
2023/02/11 04:14:49;;;;;;;1.02;1.02;;;;;;;-1.63;57.13;101779.66;4403371;32;32805;-91
2023/02/11 04:17:41;;;;;;;1.35;1.30;;;;;;;-1.48;56.74;101774.16;4390433;32;32966;-90
2023/02/11 04:20:09;;;;;;;1.02;1.02;;;;;;;-1.50;56.63;101770.66;4404187;32;33168;-89
2023/02/11 04:22:51;;;;;;;1.02;0.47;;;;;;;-1.49;56.49;101767.22;4370638;32;34565;-89
2023/02/11 04:25:30;;;;;;;4.25;1.48;;;;;;;-1.83;57.47;101765.97;4358383;32;32835;-90
2023/02/11 04:27:59;;;;;;;0.45;0.45;;;;;;;-1.75;57.74;101763.69;4381970;32;32667;-90
2023/02/11 04:30:48;;;;;;;1.98;1.87;;;;;;;-1.51;56.94;101768.00;4366982;32;32296;-89
2023/02/11 04:33:37;;;;;;;1.95;1.85;;;;;;;-1.53;56.59;101759.28;4367155;32;32207;-89
2023/02/11 04:36:07;;;;;;;1.12;0.82;;;;;;;-1.46;56.46;101764.75;4357703;32;32950;-89
2023/02/11 04:38:58;;;;;;;0.47;0.47;;;;;;;-1.51;56.40;101765.44;4390258;32;33159;-90
2023/02/11 04:41:37;;;;;;;1.17;1.17;;;;;;;-1.42;55.95;101758.87;4379431;32;32240;-92
2023/02/11 04:48:49;;;;;;;2.97;2.70;;;;;;;-1.43;55.87;101759.66;4440917;32;34883;-91
2023/02/11 04:51:41;;;;;;;0.62;0.62;;;;;;;-1.62;56.05;101767.59;4366743;32;32594;-94
2023/02/11 04:54:20;;;;;;;1.75;1.75;;;;;;;-1.73;56.43;101761.16;4406603;32;33057;-94
2023/02/11 04:57:12;;;;;;;1.52;1.48;;;;;;;-1.74;56.28;101762.84;4381112;32;34331;-89
2023/02/11 04:59:41;;;;;;;;;;;;;;;-1.84;56.44;101759.03;4366822;32;33505;-88
2023/02/11 05:02:09;;;;;;;1.55;1.45;;;;;;;-1.98;57.63;101760.22;4378110;32;32759;-91
2023/02/11 05:04:48;;;;;;;2.12;1.98;;;;;;;-1.83;57.53;101763.38;4393255;32;32174;-93
2023/02/11 05:07:39;;;;;;;0.55;0.55;;;;;;;-1.85;57.64;101771.94;4393889;32;32253;-92
2023/02/11 05:10:18;;;;;;;0.40;0.40;;;;;;;-1.67;57.05;101769.13;4378589;32;33837;-92
2023/02/11 05:13:09;;;;;;;1.45;1.35;;;;;;;-1.82;57.39;101778.09;4356393;32;32872;-92
2023/02/11 05:15:49;;;;;;;0.65;0.65;;;;;;;-1.73;57.15;101772.37;4385295;32;32622;-90
2023/02/11 05:18:41;;;;;;;0.70;0.70;;;;;;;-1.54;56.50;101773.94;4407279;32;33893;-92
2023/02/11 05:21:21;;;;;;;9.77;4.35;;;;;;;-1.55;56.40;101770.47;4388243;32;33484;-90
2023/02/11 05:24:12;;;;;;;2.40;1.58;;;;;;;-1.69;56.59;101769.09;4413909;32;33494;-89
2023/02/11 05:26:51;;;;;;;1.23;1.20;;;;;;;-1.55;56.10;101765.31;4407550;32;33279;-90
2023/02/11 05:29:42;;;;;;;7.87;4.85;;;;;;;-1.56;56.11;101770.44;4396280;32;33261;-89
2023/02/11 05:32:22;;;;;;;0.40;0.40;;;;;;;-1.56;55.99;101765.25;4362239;32;32914;-91
2023/02/11 05:35:13;;;;;;;0.93;0.93;;;;;;;-1.62;56.18;101765.87;4394744;32;32938;-93
2023/02/11 05:37:52;;;;;;;1.15;1.15;;;;;;;-1.69;56.28;101757.84;4390058;32;33123;-93
2023/02/11 05:40:44;;;;;;;0.10;0.10;;;;;;;-1.72;56.60;101757.72;4377922;32;32486;-94
2023/02/11 05:43:23;;;;;;;1.00;0.90;;;;;;;-1.62;56.03;101749.47;4398926;32;32944;-93
2023/02/11 05:46:16;;;;;;;1.45;1.35;;;;;;;-1.63;56.14;101752.88;4387118;32;32724;-91
2023/02/11 05:48:55;;;;;;;0.50;0.50;;;;;;;-1.63;56.24;101755.47;4410691;32;33071;-92
2023/02/11 05:51:46;;;;;;;2.72;2.25;;;;;;;-1.74;56.69;101754.19;4416850;32;32517;-90
2023/02/11 05:58:39;;;;;;;0.75;0.75;;;;;;;-1.55;56.06;101738.50;4394183;32;33075;-91
2023/02/11 06:01:30;;;;;;;0.63;0.63;;;;;;;-1.75;57.06;101742.09;4410209;32;31655;-93
2023/02/11 06:04:21;;;;;;;0.30;0.30;;;;;;;-1.79;57.05;101750.56;4408851;32;33324;-91
2023/02/11 06:07:01;;;;;;;3.03;1.75;;;;;;;-1.65;56.83;101760.59;4384850;32;33552;-91
2023/02/11 06:09:52;;;;;;;0.08;0.08;;;;;;;-1.75;57.00;101763.69;4414298;32;33424;-91
2023/02/11 06:12:31;;;;;;;2.45;2.35;;;;;;;-1.52;56.77;101766.22;4398279;32;33199;-92
2023/02/11 06:15:22;;;;;;;0.82;0.82;;;;;;;-1.64;56.83;101767.56;4406407;32;32266;-94
2023/02/11 06:18:04;;;;;;;1.33;1.33;;;;;;;-1.63;56.97;101765.84;4391406;32;33038;-94
2023/02/11 06:21:00;;;;;;;2.65;1.20;;;;;;;-1.52;56.92;101761.91;4389887;32;33082;-94
2023/02/11 06:23:39;;;;;;;1.35;1.35;;;;;;;-1.50;56.91;101757.69;4411485;32;33304;-93
2023/02/11 06:26:31;;;;;;;1.90;1.80;;;;;;;-1.57;57.16;101759.19;4389182;32;32787;-90
2023/02/11 06:29:01;;;;;;;3.25;3.05;;;;;;;-1.68;57.06;101754.44;4389217;32;33371;-92
2023/02/11 06:31:52;;;;;;;4.43;4.03;;;;;;;-1.75;57.75;101748.16;4394540;32;32813;-93
2023/02/11 06:34:31;;;;;;;1.15;1.15;;;;;;;-1.54;57.75;101742.88;4406632;32;33273;-93
2023/02/11 06:37:22;;;;;;;10.25;5.55;;;;;;;-1.43;57.93;101741.53;4402987;32;35048;-92
2023/02/11 06:40:03;;;;;;;3.87;3.53;;;;;;;-1.47;58.41;101744.88;4411521;32;33847;-92
2023/02/11 06:42:54;;;;;;;0.93;0.93;;;;;;;-1.05;57.46;101747.19;4387391;32;34045;-92
2023/02/11 06:45:33;;;;;;;2.92;2.72;;;;;;;-1.18;58.22;101732.06;4373372;32;32722;-93
2023/02/11 06:48:27;;;;;;;2.20;2.03;;;;;;;-0.93;57.56;101737.25;4410503;32;34233;-92
2023/02/11 06:51:08;;;;;;;3.28;3.12;;;;;;;-0.87;57.79;101733.97;4386338;32;32926;-90
2023/02/11 06:53:59;;;;;;;1.17;1.10;;;;;;;-0.70;57.71;101737.16;4354129;32;33763;-90
2023/02/11 06:56:40;;;;;;;0.88;0.88;;;;;;;-0.60;57.78;101732.28;4370534;32;32629;-90
2023/02/11 06:59:32;;;;;;;6.55;5.15;;;;;;;-0.56;57.59;101721.19;4363249;32;32647;-92
2023/02/11 07:02:11;;;;;;;1.10;1.10;;;;;;;-0.44;57.58;101723.28;4361875;32;34618;-91
2023/02/11 07:05:08;;;;;;;3.97;2.17;;;;;;;-0.40;57.61;101727.75;4391505;32;32931;-92
2023/02/11 07:07:50;;;;;;;1.70;1.60;;;;;;;-0.28;57.46;101722.94;4371029;32;31777;-91
2023/02/11 07:10:41;;;;;;;3.40;3.20;;;;;;;-0.02;56.83;101723.72;4393160;32;33392;-92
2023/02/11 07:13:20;;;;;;;0.45;0.45;;;;;;;-0.04;57.30;101727.12;4403089;32;33853;-92
2023/02/11 07:16:14;;;;;;;1.90;1.80;;;;;;;0.05;57.30;101722.22;4376058;32;33371;-92
2023/02/11 07:18:53;;;;;;;;;;;;;;;0.16;57.21;101720.81;4379961;32;32357;-90
2023/02/11 07:21:44;;;;;;;0.43;0.43;;;;;;;0.19;56.99;101715.72;4353890;32;33367;-90
2023/02/11 07:24:24;;;;;;;0.77;0.77;;;;;;;0.29;56.88;101721.19;4366086;32;33698;-90
2023/02/11 07:27:16;;;;;;;2.95;2.78;;;;;;;0.42;56.65;101715.47;4384494;32;32574;-91
2023/02/11 07:30:49;;;;;;;1.30;1.12;;;;;;;0.56;56.40;101716.72;4374784;32;32562;-90
2023/02/11 07:37:05;;;;;;;0.50;0.50;;;;;;;0.70;56.77;101714.50;4387290;32;20158;-90
2023/02/11 07:40:25;;;;;;;3.33;1.95;;;;;;;0.81;56.98;101717.38;4373004;32;33046;-90
2023/02/11 07:43:25;;;;;;;12.27;2.15;;;;;;;1.02;56.64;101717.97;4337319;32;31871;-91
2023/02/11 07:46:26;;;;;;;4.43;4.03;;;;;;;1.09;56.99;101708.59;4362338;32;20099;-88
2023/02/11 07:49:11;;;;;;;1.45;1.45;;;;;;;1.46;56.26;101711.25;4334701;32;32926;-88
2023/02/11 07:51:41;;;;;;;7.12;3.85;;;;;;;1.62;55.88;101698.63;4348847;32;34213;-88
2023/02/11 07:54:47;;;;;;;2.50;2.37;;;;;;;1.52;56.05;101694.94;4365848;32;32309;-90
2023/02/11 07:59:27;;;;;;;;;;;;;;;;;;;;;
2023/02/11 08:02:31;;;;;;;5.47;5.07;;;;;;;1.93;56.38;101692.34;4340385;32;33391;-87
2023/02/11 08:05:00;;;;;;;2.60;1.70;;;;;;;2.22;55.63;101678.22;4389967;32;33533;-90
2023/02/11 08:07:29;;;;;;;3.08;2.78;;;;;;;2.28;55.61;101680.97;4380130;32;32675;-87
2023/02/11 08:09:56;;;;;;;2.22;2.12;;;;;;;2.20;56.71;101682.53;4391570;32;33904;-88
2023/02/11 08:12:41;;;;;;;6.70;6.12;;;;;;;2.67;55.47;101673.87;4390562;32;33060;-88
2023/02/11 08:15:11;;;;;;;3.55;3.03;;;;;;;2.81;55.08;101681.09;4378052;32;33073;-87
2023/02/11 08:17:45;;;;;;;7.97;5.65;;;;;;;2.85;54.96;101673.31;4367000;32;32252;-87
2023/02/11 08:20:15;;;;;;;1.15;1.15;;;;;;;3.16;54.40;101675.59;4401887;32;33306;-88
2023/02/11 08:22:44;;;;;;;4.43;3.95;;;;;;;3.37;53.46;101675.09;4401250;32;34586;-88
2023/02/11 08:25:22;;;;;;;8.20;3.75;;;;;;;3.33;52.98;101678.50;4380681;32;34431;-88
2023/02/11 08:27:51;;;;;;;1.10;1.10;;;;;;;3.73;51.25;101673.84;4375569;32;32790;-87
2023/02/11 08:30:21;;;;;;;1.95;1.85;;;;;;;3.87;50.43;101666.22;4389094;32;34151;-88
2023/02/11 08:32:55;;;;;;;1.08;1.08;;;;;;;3.61;50.86;101664.13;4390567;32;33519;-88
2023/02/11 08:35:24;;;;;;;1.37;1.35;;;;;;;3.72;51.17;101662.53;4389276;32;33118;-88
2023/02/11 08:37:53;;;;;;;1.80;1.70;;;;;;;3.65;50.16;101665.91;4399288;32;33252;-87
2023/02/11 08:40:21;;;;;;;2.60;1.30;;;;;;;3.70;49.93;101663.34;4378054;32;33957;-87
2023/02/11 08:43:02;;;;;;;4.37;1.77;;;;;;;4.09;49.38;101665.66;4389710;32;34369;-86
2023/02/11 08:45:36;;;;;;;1.50;1.40;;;;;;;4.26;47.71;101671.94;4378285;32;34207;-86
2023/02/11 08:48:35;;;;;;;;;;;;;;;;;;;;;
2023/02/11 08:51:27;;;;;;;2.50;1.75;;;;;;;4.30;47.42;101665.03;4401620;32;32763;-85
2023/02/11 08:53:55;;;;;;;2.33;2.12;;;;;;;4.29;47.71;101666.75;4377054;32;34115;-86
2023/02/11 08:56:23;;;;;;;1.15;1.15;;;;;;;4.00;49.41;101661.19;4376048;32;33670;-86
2023/02/11 08:58:51;;;;;;;2.80;2.17;;;;;;;4.06;49.21;101663.84;4389344;32;32367;-86
2023/02/11 09:01:23;;;;;;;0.73;0.73;;;;;;;3.93;48.51;101669.78;4370629;32;32666;-86
2023/02/11 09:03:51;;;;;;;1.50;1.15;;;;;;;4.13;48.50;101659.59;4377357;32;32452;-85
2023/02/11 09:06:20;;;;;;;2.78;2.20;;;;;;;4.20;49.17;101661.41;4377667;32;34444;-85
2023/02/11 09:08:49;;;;;;;4.72;1.85;;;;;;;4.35;48.54;101671.19;4390392;32;33439;-86
2023/02/11 09:11:20;;;;;;;8.00;3.35;;;;;;;4.88;46.79;101650.78;4376651;32;32223;-85
2023/02/11 09:13:47;;;;;;;7.30;3.85;;;;;;;4.77;47.34;101654.19;4388428;32;32960;-86
2023/02/11 09:16:18;;;;;;;1.75;1.65;;;;;;;4.81;47.65;101635.91;4401592;32;34133;-85
2023/02/11 09:18:47;;;;;;;1.52;1.42;;;;;;;5.26;45.42;101639.75;4379314;32;32861;-85
2023/02/11 09:21:16;;;;;;;3.33;3.20;;;;;;;5.28;45.54;101643.28;4375555;32;31472;-85
2023/02/11 09:23:46;;;;;;;1.65;1.55;;;;;;;5.19;45.95;101653.69;4384311;32;33842;-84
2023/02/11 09:26:23;;;;;;;1.92;1.83;;;;;;;5.50;44.94;101646.91;4376111;32;33281;-84
2023/02/11 09:28:51;;;;;;;2.35;2.22;;;;;;;5.30;44.60;101638.06;4376995;32;33606;-84
2023/02/11 09:31:21;;;;;;;7.75;3.47;;;;;;;5.15;48.25;101636.19;4391468;32;32176;-84
2023/02/11 09:33:52;;;;;;;0.62;0.62;;;;;;;5.43;45.77;101634.66;4401811;32;33722;-84
2023/02/11 09:36:23;;;;;;;3.85;3.60;;;;;;;5.74;44.94;101626.97;4378310;32;32628;-84
2023/02/11 09:38:51;;;;;;;2.28;2.17;;;;;;;5.77;46.42;101622.63;4375636;32;33088;-84
2023/02/11 09:41:39;;;;;;;2.83;2.58;;;;;;;5.95;43.68;101618.38;4399649;32;32840;-85
2023/02/11 09:44:24;;;;;;;1.75;1.65;;;;;;;5.75;44.54;101611.28;4401015;32;31025;-84
2023/02/11 09:46:58;;;;;;;1.15;1.10;;;;;;;5.54;45.02;101608.50;4373647;32;33479;-84
2023/02/11 09:49:35;;;;;;;3.03;1.62;;;;;;;6.31;43.91;101610.63;4390162;32;33532;-84
2023/02/11 09:52:19;;;;;;;3.50;1.55;;;;;;;6.52;43.00;101608.94;4401322;32;34103;-85
2023/02/11 09:54:53;;;;;;;1.95;1.75;;;;;;;6.71;42.36;101604.59;4382464;32;33615;-84
2023/02/11 09:57:25;;;;;;;2.20;2.00;;;;;;;6.95;42.85;101606.34;4388775;32;31221;-85
2023/02/11 09:59:56;;;;;;;2.22;2.10;;;;;;;7.29;41.75;101599.31;4379832;32;33899;-85
2023/02/11 10:02:53;;;;;;;3.40;2.90;;;;;;;7.20;42.31;101597.56;4394364;32;33816;-85
2023/02/11 10:05:35;;;;;;;3.72;2.80;;;;;;;7.23;40.62;101597.56;4397584;32;33250;-83
2023/02/11 10:08:19;;;;;;;1.45;1.35;;;;;;;7.19;40.31;101603.72;4380438;32;34538;-86
2023/02/11 10:11:13;;;;;;;2.30;1.90;;;;;;;7.21;41.01;101590.56;4388439;32;32710;-85
2023/02/11 10:14:36;;;;;;;1.42;1.42;;;;;;;7.64;40.36;101586.97;4399431;32;33447;-85
2023/02/11 10:17:26;;;;;;;2.55;2.25;;;;;;;7.92;40.71;101571.94;4392689;32;34603;-85
2023/02/11 10:20:35;;;;;;;1.42;1.35;;;;;;;7.95;40.51;101577.19;4404957;32;33436;-85
2023/02/11 10:23:23;;;;;;;2.70;2.42;;;;;;;8.08;40.04;101567.50;4379144;32;33454;-85
2023/02/11 10:25:53;;;;;;;4.22;3.92;;;;;;;7.96;40.42;101567.56;4399553;32;32401;-85
2023/02/11 10:28:34;;;;;;;8.10;3.25;;;;;;;8.45;39.55;101562.94;4374413;32;35837;-85
2023/02/11 10:31:04;;;;;;;3.25;2.80;;;;;;;8.31;39.60;101570.00;4391724;32;34573;-85
2023/02/11 10:33:44;;;;;;;3.50;2.60;;;;;;;8.65;39.65;101561.91;4405167;32;33346;-85
2023/02/11 10:36:13;;;;;;;3.42;3.12;;;;;;;8.43;40.94;101563.81;4391219;32;33186;-85
2023/02/11 10:38:42;;;;;;;6.95;3.65;;;;;;;7.99;40.72;101556.16;4390443;32;34815;-85
2023/02/11 10:41:17;;;;;;;2.83;2.65;;;;;;;8.62;40.14;101549.63;4403561;32;33684;-85
2023/02/11 10:43:44;;;;;;;9.13;3.90;;;;;;;8.53;40.08;101547.06;4391301;32;33094;-85
2023/02/11 10:46:16;;;;;;;14.70;3.65;;;;;;;8.47;39.93;101547.12;4403911;32;34125;-85
2023/02/11 10:48:50;;;;;;;4.45;3.90;;;;;;;7.90;40.70;101541.28;4380059;32;34165;-85
2023/02/11 10:51:29;;;;;;;5.80;1.70;;;;;;;7.96;40.63;101534.22;4405370;32;33286;-85
2023/02/11 10:54:02;;;;;;;2.25;1.37;;;;;;;7.90;41.09;101539.53;4393279;32;33448;-85
2023/02/11 10:56:33;;;;;;;8.05;3.75;;;;;;;8.12;41.11;101534.16;4392782;32;32993;-85
2023/02/11 10:59:13;;;;;;;1.85;1.75;;;;;;;8.16;42.21;101530.59;4398549;32;32852;-85
2023/02/11 11:01:47;;;;;;;3.83;3.00;;;;;;;8.46;40.05;101526.94;4396333;32;33600;-85
2023/02/11 11:04:33;;;;;;;3.03;2.72;;;;;;;8.66;40.54;101524.16;4398621;32;33776;-84
2023/02/11 11:07:26;;;;;;;1.55;1.45;;;;;;;8.66;39.84;101526.78;4398541;32;32933;-84
2023/02/11 11:10:01;;;;;;;2.50;1.52;;;;;;;8.65;40.48;101527.69;4397157;32;33454;-84
2023/02/11 11:12:35;;;;;;;4.45;1.95;;;;;;;8.92;39.34;101510.72;4397863;32;35077;-84
2023/02/11 11:15:09;;;;;;;2.37;2.28;;;;;;;9.27;36.14;101507.75;4384490;32;30208;-84
2023/02/11 11:17:37;;;;;;;1.65;1.55;;;;;;;9.35;35.97;101499.75;4387978;32;33490;-84
2023/02/11 11:20:34;;;;;;;1.40;1.08;;;;;;;9.77;35.52;101487.78;4399829;32;32761;-83
2023/02/11 11:23:17;;;;;;;0.95;0.82;;;;;;;9.94;34.84;101487.56;4387099;32;32409;-84
2023/02/11 11:25:58;;;;;;;2.15;1.12;;;;;;;10.05;34.27;101480.34;4396048;32;34524;-84
2023/02/11 11:28:27;;;;;;;9.43;3.20;;;;;;;10.19;33.34;101474.88;4386204;32;34487;-84
2023/02/11 11:30:55;;;;;;;1.35;1.33;;;;;;;10.28;33.99;101464.19;4380949;32;32660;-84
2023/02/11 11:33:34;;;;;;;1.37;1.00;;;;;;;9.23;35.75;101463.87;4397878;32;33561;-83
2023/02/11 11:36:07;;;;;;;1.37;1.37;;;;;;;9.96;34.50;101464.66;4395215;32;32595;-84
2023/02/11 11:38:37;;;;;;;1.65;1.55;;;;;;;10.67;32.78;101456.50;4375367;32;32873;-84
2023/02/11 11:41:32;;;;;;;2.35;2.15;;;;;;;10.50;32.43;101454.16;4363058;32;34077;-84
2023/02/11 11:44:24;;;;;;;7.03;2.20;;;;;;;10.55;33.64;101446.16;4386897;32;33267;-84
2023/02/11 11:47:11;;;;;;;3.17;1.83;;;;;;;10.83;31.75;101443.91;4389255;32;34117;-84
2023/02/11 11:49:48;;;;;;;3.92;2.40;;;;;;;10.60;32.59;101431.13;4389811;32;32004;-84
2023/02/11 11:52:35;;;;;;;1.42;1.37;;;;;;;10.24;32.26;101436.09;4387143;32;32915;-85
2023/02/11 11:55:49;;;;;;;5.22;3.92;;;;;;;10.11;32.40;101439.78;4403119;32;33681;-84
2023/02/11 11:58:19;;;;;;;2.92;2.62;;;;;;;10.45;33.75;101424.34;4396534;32;34025;-84
2023/02/11 12:01:02;;;;;;;3.20;3.00;;;;;;;9.91;33.18;101419.00;4397600;32;33507;-84
2023/02/11 12:03:48;;;;;;;2.72;2.20;;;;;;;10.59;32.96;101419.69;4378340;32;34067;-84
2023/02/11 12:06:22;;;;;;;1.15;1.12;;;;;;;10.90;31.51;101417.31;4389068;32;34915;-84
2023/02/11 12:09:16;;;;;;;4.60;3.15;;;;;;;10.49;31.91;101429.53;4376377;32;32372;-84
2023/02/11 12:11:55;;;;;;;4.95;2.55;;;;;;;10.64;32.04;101416.94;4372851;32;34199;-84
2023/02/11 12:14:45;;;;;;;4.32;1.95;;;;;;;10.94;32.25;101407.56;4386015;32;36920;-84
2023/02/11 12:17:32;;;;;;;2.75;2.55;;;;;;;10.91;31.37;101399.69;4386247;32;32932;-84
2023/02/11 12:20:16;;;;;;;3.53;2.67;;;;;;;10.67;32.66;101393.09;4369867;32;35510;-84
2023/02/11 12:22:51;;;;;;;1.15;1.12;;;;;;;10.21;33.67;101383.34;4389705;32;31836;-84
2023/02/11 12:25:26;;;;;;;5.97;3.40;;;;;;;10.65;33.30;101368.50;4385427;32;34437;-84
2023/02/11 12:28:02;;;;;;;1.50;1.40;;;;;;;10.51;32.93;101356.41;4384914;32;33485;-84
2023/02/11 12:30:57;;;;;;;3.85;3.60;;;;;;;10.13;33.55;101358.84;4385980;32;33013;-84
2023/02/11 12:33:33;;;;;;;1.77;1.37;;;;;;;10.58;32.06;101346.59;4389182;32;34083;-85
2023/02/11 12:36:14;;;;;;;2.00;1.90;;;;;;;10.56;33.07;101342.25;4378038;32;31485;-83
2023/02/11 12:38:50;;;;;;;2.58;2.40;;;;;;;11.07;32.31;101334.19;4386967;32;33818;-84
2023/02/11 12:44:50;;;;;;;2.58;2.37;;;;;;;10.71;32.34;101328.75;4388725;32;33607;-84
2023/02/11 12:47:27;;;;;;;1.20;1.12;;;;;;;10.58;32.07;101325.47;4390412;32;33726;-84
2023/02/11 12:50:24;;;;;;;1.45;1.37;;;;;;;10.97;31.99;101328.22;4387553;32;32491;-84
2023/02/11 12:53:17;;;;;;;3.65;2.40;;;;;;;10.67;32.65;101325.28;4386043;32;31883;-84
2023/02/11 12:55:47;;;;;;;1.65;1.55;;;;;;;11.08;31.15;101318.28;4376187;32;34900;-83
2023/02/11 12:58:20;;;;;;;1.80;1.70;;;;;;;10.60;31.48;101314.87;4370481;32;31997;-84
2023/02/11 13:01:09;;;;;;;2.53;2.10;;;;;;;10.67;30.85;101301.50;4379556;32;32644;-84
2023/02/11 13:03:47;;;;;;;2.35;2.20;;;;;;;10.63;29.96;101304.25;4387349;32;31526;-83